Airport ICAO


14:27 UTC

30°C

Clear skies


An affordable passengers' Moving Map for your aircraft. Made for the iPad and the iPhone
More information here

LFLS Saint Geoirs


Grenoble FRANCE   VFR CAVOK


METAR LFLS 231400Z AUTO VRB04KT CAVOK 30/14 Q1019 NOSIG 0h27min

TAF LFLS 230800Z 2309/2409 09005KT 9999 BKN045 BECMG 2315/2317 32010KT PROB40 TEMPO 2317/2320 4000 SHRA SCT040TCU TEMPO 2320/2324 32015G25KT 5000 RA BKN012 PROB40 TEMPO 2322/2324 32020G35KT 3000 RA OVC006 BECMG 2400/2402 BKN015 BKN040 BECMG 2406/2408 SCT015 6h27min





NOTAMS

OPEN